sensor_id;sensor_type;location;lat;lon;timestamp;pressure;altitude;pressure_sealevel;temperature;humidity
46506;BME280;32220;49.808;9.968;2023-12-20T10:00:47;98955.50;;;6.20;100.00
46506;BME280;32220;49.808;9.968;2023-12-20T10:03:17;98921.47;;;6.56;100.00
46506;BME280;32220;49.808;9.968;2023-12-20T10:05:46;98960.88;;;7.51;100.00
46506;BME280;32220;49.808;9.968;2023-12-20T10:08:35;98949.84;;;8.13;100.00
46506;BME280;32220;49.808;9.968;2023-12-20T10:11:21;98946.41;;;8.63;100.00
46506;BME280;32220;49.808;9.968;2023-12-20T10:13:48;98980.63;;;8.97;98.92
46506;BME280;32220;49.808;9.968;2023-12-20T10:16:24;98965.09;;;8.91;95.50
46506;BME280;32220;49.808;9.968;2023-12-20T10:19:07;98981.97;;;9.05;94.17
46506;BME280;32220;49.808;9.968;2023-12-20T10:21:35;98976.03;;;9.01;90.86
46506;BME280;32220;49.808;9.968;2023-12-20T10:24:16;98986.59;;;9.17;90.96
46506;BME280;32220;49.808;9.968;2023-12-20T10:27:08;98985.41;;;9.22;90.09
46506;BME280;32220;49.808;9.968;2023-12-20T10:29:58;98980.31;;;9.51;89.39
46506;BME280;32220;49.808;9.968;2023-12-20T10:32:36;98984.81;;;10.10;86.94
46506;BME280;32220;49.808;9.968;2023-12-20T10:35:23;98950.50;;;10.53;85.08
46506;BME280;32220;49.808;9.968;2023-12-20T10:38:11;98950.47;;;11.92;78.78
46506;BME280;32220;49.808;9.968;2023-12-20T10:41:01;98994.31;;;12.24;74.45
46506;BME280;32220;49.808;9.968;2023-12-20T10:43:32;98978.59;;;11.81;73.12
46506;BME280;32220;49.808;9.968;2023-12-20T10:46:00;98955.16;;;11.47;72.84
46506;BME280;32220;49.808;9.968;2023-12-20T10:48:51;98963.31;;;11.44;74.84
46506;BME280;32220;49.808;9.968;2023-12-20T10:51:41;98944.63;;;11.19;71.16
46506;BME280;32220;49.808;9.968;2023-12-20T10:54:37;98973.03;;;11.58;69.12
46506;BME280;32220;49.808;9.968;2023-12-20T10:57:21;98982.78;;;11.98;70.37
46506;BME280;32220;49.808;9.968;2023-12-20T10:59:52;98993.09;;;12.03;67.42
46506;BME280;32220;49.808;9.968;2023-12-20T11:02:25;98982.38;;;11.77;67.40
46506;BME280;32220;49.808;9.968;2023-12-20T11:05:01;98967.59;;;11.46;68.85
46506;BME280;32220;49.808;9.968;2023-12-20T11:10:39;98946.75;;;10.85;69.57
46506;BME280;32220;49.808;9.968;2023-12-20T11:13:32;98970.38;;;10.88;71.56
46506;BME280;32220;49.808;9.968;2023-12-20T11:16:14;98927.81;;;10.34;72.23
46506;BME280;32220;49.808;9.968;2023-12-20T11:18:41;98950.28;;;10.27;73.83
46506;BME280;32220;49.808;9.968;2023-12-20T11:21:26;98917.47;;;9.86;75.42
46506;BME280;32220;49.808;9.968;2023-12-20T11:24:15;98925.34;;;9.71;76.17
46506;BME280;32220;49.808;9.968;2023-12-20T11:27:23;98921.06;;;9.69;77.23
46506;BME280;32220;49.808;9.968;2023-12-20T11:30:11;98887.88;;;9.49;77.12
46506;BME280;32220;49.808;9.968;2023-12-20T11:33:07;98888.06;;;9.30;76.87
46506;BME280;32220;49.808;9.968;2023-12-20T11:36:12;98925.13;;;9.60;77.13
46506;BME280;32220;49.808;9.968;2023-12-20T11:38:57;98865.91;;;9.17;76.44
46506;BME280;32220;49.808;9.968;2023-12-20T11:41:40;98916.72;;;9.38;76.82
46506;BME280;32220;49.808;9.968;2023-12-20T11:44:27;98893.19;;;9.18;76.03
46506;BME280;32220;49.808;9.968;2023-12-20T11:47:35;98876.47;;;9.17;76.22
46506;BME280;32220;49.808;9.968;2023-12-20T11:50:22;98878.25;;;9.17;75.87
46506;BME280;32220;49.808;9.968;2023-12-20T11:53:00;98916.34;;;9.44;74.52
46506;BME280;32220;49.808;9.968;2023-12-20T11:55:30;98892.16;;;9.36;75.91
46506;BME280;32220;49.808;9.968;2023-12-20T11:57:57;98878.41;;;9.29;75.50
46506;BME280;32220;49.808;9.968;2023-12-20T12:00:25;98923.66;;;9.55;73.61
46506;BME280;32220;49.808;9.968;2023-12-20T12:03:06;98924.03;;;9.49;72.99
46506;BME280;32220;49.808;9.968;2023-12-20T12:05:54;98883.28;;;9.37;73.86
46506;BME280;32220;49.808;9.968;2023-12-20T12:08:35;98901.75;;;9.53;73.17
46506;BME280;32220;49.808;9.968;2023-12-20T12:11:37;98905.25;;;9.53;72.88
46506;BME280;32220;49.808;9.968;2023-12-20T12:14:58;98861.66;;;9.15;71.42
46506;BME280;32220;49.808;9.968;2023-12-20T12:17:30;98858.44;;;9.10;71.46
46506;BME280;32220;49.808;9.968;2023-12-20T12:20:22;98886.50;;;9.42;71.01
46506;BME280;32220;49.808;9.968;2023-12-20T12:23:06;98894.66;;;9.53;68.22
46506;BME280;32220;49.808;9.968;2023-12-20T12:25:35;98905.53;;;9.79;67.80
46506;BME280;32220;49.808;9.968;2023-12-20T12:28:20;98876.47;;;9.93;67.40
46506;BME280;32220;49.808;9.968;2023-12-20T12:30:56;98910.31;;;10.46;67.29
46506;BME280;32220;49.808;9.968;2023-12-20T12:33:24;98882.25;;;10.58;66.67
46506;BME280;32220;49.808;9.968;2023-12-20T12:35:52;98898.31;;;10.83;65.20
46506;BME280;32220;49.808;9.968;2023-12-20T12:38:20;98912.28;;;10.99;65.29
46506;BME280;32220;49.808;9.968;2023-12-20T12:40:50;98925.56;;;10.85;63.12
46506;BME280;32220;49.808;9.968;2023-12-20T12:43:21;98878.19;;;10.38;62.73
46506;BME280;32220;49.808;9.968;2023-12-20T12:45:56;98941.44;;;10.57;63.08
46506;BME280;32220;49.808;9.968;2023-12-20T12:48:23;98911.84;;;10.36;64.41
46506;BME280;32220;49.808;9.968;2023-12-20T12:50:51;98925.50;;;10.28;64.11
46506;BME280;32220;49.808;9.968;2023-12-20T12:53:20;98928.81;;;10.02;64.40
46506;BME280;32220;49.808;9.968;2023-12-20T12:55:48;98892.28;;;9.79;64.71
46506;BME280;32220;49.808;9.968;2023-12-20T12:58:22;98920.31;;;9.97;65.39
46506;BME280;32220;49.808;9.968;2023-12-20T13:00:51;98861.78;;;9.43;64.00
46506;BME280;32220;49.808;9.968;2023-12-20T13:03:18;98871.63;;;9.55;65.35
46506;BME280;32220;49.808;9.968;2023-12-20T13:05:46;98867.56;;;9.50;65.50
46506;BME280;32220;49.808;9.968;2023-12-20T13:08:17;98913.16;;;9.69;65.89
46506;BME280;32220;49.808;9.968;2023-12-20T13:10:45;98907.59;;;9.73;65.88
46506;BME280;32220;49.808;9.968;2023-12-20T13:13:12;98903.41;;;9.69;66.17
46506;BME280;32220;49.808;9.968;2023-12-20T13:15:43;98880.34;;;9.57;66.62
46506;BME280;32220;49.808;9.968;2023-12-20T13:18:16;98866.03;;;9.46;67.48
46506;BME280;32220;49.808;9.968;2023-12-20T13:21:05;98882.75;;;9.46;67.66
46506;BME280;32220;49.808;9.968;2023-12-20T13:23:32;98853.03;;;9.27;67.82
46506;BME280;32220;49.808;9.968;2023-12-20T13:26:01;98886.50;;;9.42;68.06
46506;BME280;32220;49.808;9.968;2023-12-20T13:28:32;98889.50;;;9.36;68.22
46506;BME280;32220;49.808;9.968;2023-12-20T13:31:02;98890.97;;;9.26;67.83
46506;BME280;32220;49.808;9.968;2023-12-20T13:33:33;98884.16;;;9.22;68.14
46506;BME280;32220;49.808;9.968;2023-12-20T13:36:18;98873.59;;;9.06;69.00
46506;BME280;32220;49.808;9.968;2023-12-20T13:39:08;98849.47;;;8.96;69.42
46506;BME280;32220;49.808;9.968;2023-12-20T13:41:37;98801.47;;;8.74;69.65
46506;BME280;32220;49.808;9.968;2023-12-20T13:44:05;98835.09;;;8.86;68.84
46506;BME280;32220;49.808;9.968;2023-12-20T13:46:35;98812.44;;;8.82;69.00
46506;BME280;32220;49.808;9.968;2023-12-20T13:49:03;98827.25;;;8.85;69.01
46506;BME280;32220;49.808;9.968;2023-12-20T13:51:34;98749.59;;;8.42;69.76
46506;BME280;32220;49.808;9.968;2023-12-20T13:54:17;98809.22;;;8.77;70.27
46506;BME280;32220;49.808;9.968;2023-12-20T13:56:47;98793.28;;;8.63;70.90
46506;BME280;32220;49.808;9.968;2023-12-20T13:59:18;98797.63;;;8.64;70.66
46506;BME280;32220;49.808;9.968;2023-12-20T14:02:07;98796.94;;;8.76;71.20
46506;BME280;32220;49.808;9.968;2023-12-20T14:04:34;98802.56;;;8.86;70.79
46506;BME280;32220;49.808;9.968;2023-12-20T14:07:04;98788.25;;;8.74;70.32
46506;BME280;32220;49.808;9.968;2023-12-20T14:09:45;98745.69;;;8.49;70.25
46506;BME280;32220;49.808;9.968;2023-12-20T14:12:13;98778.09;;;8.82;69.87
46506;BME280;32220;49.808;9.968;2023-12-20T14:14:41;98768.47;;;8.81;70.14
46506;BME280;32220;49.808;9.968;2023-12-20T14:17:29;98801.09;;;8.96;69.83
46506;BME280;32220;49.808;9.968;2023-12-20T14:19:58;98757.66;;;8.70;69.69
46506;BME280;32220;49.808;9.968;2023-12-20T14:22:28;98794.34;;;8.90;70.43
46506;BME280;32220;49.808;9.968;2023-12-20T14:24:56;98770.03;;;8.70;70.82
46506;BME280;32220;49.808;9.968;2023-12-20T14:27:26;98823.50;;;8.89;70.85
46506;BME280;32220;49.808;9.968;2023-12-20T14:29:54;98822.81;;;8.85;70.76
46506;BME280;32220;49.808;9.968;2023-12-20T14:32:24;98824.53;;;8.86;70.66
46506;BME280;32220;49.808;9.968;2023-12-20T14:34:58;98808.00;;;8.67;70.36
